createdAt,value
2023-01-23T00:04:13.366Z,1.06
2023-01-23T00:09:16.142Z,1.10
2023-01-23T00:14:18.930Z,1.09
2023-01-23T00:19:23.087Z,1.08
2023-01-23T00:24:25.816Z,1.08
2023-01-23T00:29:28.546Z,1.06
2023-01-23T00:34:32.668Z,1.03
2023-01-23T00:39:35.420Z,1.09
2023-01-23T00:44:38.243Z,1.09
2023-01-23T00:49:42.424Z,1.11
2023-01-23T00:54:46.009Z,1.05
2023-01-23T00:59:48.866Z,1.06
2023-01-23T01:04:53.227Z,1.06
2023-01-23T01:09:56.116Z,1.03
2023-01-23T01:14:58.925Z,1.07
2023-01-23T01:20:04.270Z,1.04
2023-01-23T01:25:08.017Z,1.04
2023-01-23T01:30:12.320Z,1.04
2023-01-23T01:35:16.404Z,1.03
2023-01-23T01:40:21.651Z,1.00
2023-01-23T01:46:16.507Z,1.00
2023-01-23T01:51:28.986Z,0.99
2023-01-23T01:56:36.604Z,0.97
2023-01-23T02:01:41.261Z,0.95
2023-01-23T02:06:45.594Z,0.90
2023-01-23T02:11:50.060Z,0.93
2023-01-23T02:16:59.870Z,0.85
2023-01-23T02:22:20.909Z,0.72
2023-01-23T02:27:25.170Z,0.65
2023-01-23T02:32:29.351Z,0.66
2023-01-23T02:37:35.495Z,0.68
2023-01-23T02:42:42.869Z,0.68
2023-01-23T02:47:48.024Z,0.72
2023-01-23T02:52:54.689Z,0.72
2023-01-23T02:58:18.897Z,0.74
2023-01-23T03:03:21.671Z,0.77
2023-01-23T03:08:34.251Z,0.78
2023-01-23T03:13:38.515Z,0.79
2023-01-23T03:18:53.599Z,0.79
2023-01-23T03:23:57.892Z,0.80
2023-01-23T03:29:19.640Z,0.82
2023-01-23T03:34:22.948Z,0.81
2023-01-23T03:39:43.896Z,0.79
2023-01-23T03:44:48.556Z,0.78
2023-01-23T03:49:51.627Z,0.77
2023-01-23T03:54:55.178Z,0.77
2023-01-23T03:59:59.364Z,0.76
2023-01-23T04:05:06.018Z,0.76
2023-01-23T04:10:12.930Z,0.77
2023-01-23T04:15:18.227Z,0.80
2023-01-23T04:20:21.756Z,0.79
2023-01-23T04:25:24.878Z,0.79
2023-01-23T04:30:30.118Z,0.80
2023-01-23T04:35:37.650Z,0.81
2023-01-23T04:40:40.698Z,0.80
2023-01-23T04:45:45.372Z,0.78
2023-01-23T04:51:07.484Z,0.84
2023-01-23T04:56:10.975Z,0.80
2023-01-23T05:01:15.364Z,0.82
2023-01-23T05:06:18.276Z,0.83
2023-01-23T05:11:21.137Z,0.85
2023-01-23T05:16:25.671Z,0.89
2023-01-23T05:21:57.786Z,0.86
2023-01-23T05:27:02.441Z,0.90
2023-01-23T05:32:09.041Z,0.89
2023-01-23T05:37:14.514Z,0.86
2023-01-23T05:42:21.623Z,0.93
2023-01-23T05:47:49.032Z,0.90
2023-01-23T05:52:53.690Z,0.88
2023-01-23T05:57:56.455Z,0.91
2023-01-23T06:03:30.294Z,0.89
2023-01-23T06:09:02.119Z,0.88
2023-01-23T06:14:06.018Z,0.84
2023-01-23T06:19:11.190Z,0.90
2023-01-23T06:24:14.372Z,0.83
2023-01-23T06:29:17.329Z,0.85
2023-01-23T06:34:21.602Z,0.87
2023-01-23T06:39:32.339Z,0.88
2023-01-23T06:44:36.088Z,0.87
2023-01-23T06:49:40.838Z,0.84
2023-01-23T06:54:44.588Z,0.90
2023-01-23T06:59:47.993Z,0.89
2023-01-23T07:04:53.666Z,0.91
2023-01-23T07:09:56.568Z,0.94
2023-01-23T07:15:01.269Z,0.95
2023-01-23T07:20:14.274Z,0.95
2023-01-23T07:25:21.595Z,1.00
2023-01-23T07:30:24.849Z,0.94
2023-01-23T07:35:29.269Z,0.97
2023-01-23T07:40:32.062Z,1.00
2023-01-23T07:45:35.091Z,1.02
2023-01-23T07:50:39.330Z,1.03
2023-01-23T07:55:42.383Z,1.03
2023-01-23T08:00:45.887Z,1.04
2023-01-23T08:05:51.236Z,1.05
2023-01-23T08:10:53.935Z,1.11
2023-01-23T08:15:58.994Z,1.15
2023-01-23T08:21:04.255Z,1.24
2023-01-23T08:26:09.344Z,1.29
2023-01-23T08:31:14.359Z,1.29
2023-01-23T08:36:18.872Z,1.36
2023-01-23T08:41:21.866Z,1.41
2023-01-23T08:46:25.015Z,1.45
2023-01-23T08:51:29.458Z,1.49
2023-01-23T08:56:32.922Z,1.54
2023-01-23T09:01:35.839Z,1.39
2023-01-23T09:06:40.053Z,1.49
2023-01-23T09:11:42.866Z,1.53
2023-01-23T09:16:45.717Z,1.59
2023-01-23T09:21:49.944Z,1.45
2023-01-23T09:26:52.641Z,1.48
2023-01-23T09:31:55.600Z,1.47
2023-01-23T09:36:59.755Z,1.40
2023-01-23T09:42:08.517Z,1.44
2023-01-23T09:47:17.220Z,1.46
2023-01-23T09:52:24.759Z,1.53
2023-01-23T09:57:35.998Z,1.51
2023-01-23T10:02:38.884Z,1.41
2023-01-23T10:07:55.435Z,1.66
2023-01-23T10:13:05.835Z,1.72
2023-01-23T10:18:19.929Z,1.73
2023-01-23T10:23:41.163Z,2.02
2023-01-23T10:28:44.956Z,1.95
2023-01-23T10:33:53.544Z,1.93
2023-01-23T10:39:03.063Z,2.02
2023-01-23T10:44:14.596Z,2.10
2023-01-23T10:49:30.354Z,1.92
2023-01-23T10:54:46.738Z,1.77
2023-01-23T10:59:55.566Z,1.99
2023-01-23T11:04:59.015Z,1.93
2023-01-23T11:10:19.196Z,2.09
2023-01-23T11:15:24.805Z,2.08
2023-01-23T11:20:30.701Z,2.26
2023-01-23T11:25:38.492Z,2.27
2023-01-23T11:30:48.558Z,2.38
2023-01-23T11:35:59.980Z,2.37
2023-01-23T11:41:05.361Z,2.60
2023-01-23T11:46:37.422Z,2.63
2023-01-23T11:51:49.231Z,2.69
2023-01-23T11:57:02.596Z,2.76
2023-01-23T12:02:27.151Z,2.60
2023-01-23T12:07:34.151Z,2.72
2023-01-23T12:12:55.078Z,2.71
2023-01-23T12:18:07.617Z,2.59
2023-01-23T12:23:25.174Z,2.76
2023-01-23T12:28:49.486Z,2.74
2023-01-23T12:34:08.378Z,2.77
2023-01-23T12:39:23.576Z,2.96
2023-01-23T12:44:35.039Z,3.27
2023-01-23T12:49:43.646Z,3.08
2023-01-23T12:54:51.878Z,3.21
2023-01-23T13:00:05.012Z,3.25
2023-01-23T13:05:17.180Z,3.11
2023-01-23T13:10:59.419Z,3.00
2023-01-23T13:16:10.128Z,3.03
2023-01-23T13:21:31.273Z,2.97
2023-01-23T13:26:39.351Z,2.88
2023-01-23T13:31:46.800Z,2.96
2023-01-23T13:36:50.920Z,2.92
2023-01-23T13:42:44.277Z,3.16
2023-01-23T14:21:30.435Z,3.02
2023-01-23T14:26:50.012Z,3.07
2023-01-23T14:31:53.473Z,2.97
2023-01-23T14:37:03.928Z,2.95
2023-01-23T14:42:11.599Z,2.95
2023-01-23T14:47:21.020Z,2.90
2023-01-23T14:52:25.854Z,2.88
2023-01-23T14:57:29.612Z,2.73
2023-01-23T15:02:34.830Z,2.74
2023-01-23T15:07:46.785Z,2.61
2023-01-23T15:12:53.040Z,2.64
2023-01-23T15:17:57.234Z,2.64
2023-01-23T15:23:22.180Z,2.58
2023-01-23T15:28:32.232Z,2.48
2023-01-23T15:33:39.674Z,2.45
2023-01-23T15:38:49.112Z,2.41
2023-01-23T15:43:51.931Z,2.29
2023-01-23T15:48:54.960Z,2.26
2023-01-23T15:53:59.206Z,2.20
2023-01-23T15:59:02.808Z,2.17
2023-01-23T16:04:05.775Z,2.09
2023-01-23T16:09:19.576Z,2.05
2023-01-23T16:14:22.460Z,1.97
2023-01-23T16:19:25.192Z,1.91
2023-01-23T16:24:30.784Z,1.86
2023-01-23T16:29:35.352Z,1.73
2023-01-23T16:34:38.703Z,1.73
2023-01-23T16:39:44.562Z,1.70
2023-01-23T16:44:47.400Z,1.73
2023-01-23T16:49:53.344Z,1.72
2023-01-23T16:54:58.315Z,1.69
2023-01-23T17:00:01.380Z,1.66
2023-01-23T17:05:04.327Z,1.66
2023-01-23T17:10:11.183Z,1.67
2023-01-23T17:15:21.940Z,1.70
2023-01-23T17:20:25.307Z,1.68
2023-01-23T17:25:31.429Z,1.71
2023-01-23T17:30:34.771Z,1.71
2023-01-23T17:35:38.630Z,1.70
2023-01-23T17:40:42.937Z,1.72
2023-01-23T17:45:48.222Z,1.73
2023-01-23T17:50:51.109Z,1.70
2023-01-23T17:55:55.836Z,1.71
2023-01-23T18:00:59.512Z,1.69
2023-01-23T18:06:02.736Z,1.70
2023-01-23T18:11:07.719Z,1.73
2023-01-23T18:16:15.126Z,1.73
2023-01-23T18:21:18.581Z,1.72
2023-01-23T18:26:33.828Z,1.75
2023-01-23T18:31:45.030Z,1.72
2023-01-23T18:37:00.446Z,1.74
2023-01-23T18:42:15.930Z,1.74
2023-01-23T18:47:19.985Z,1.71
2023-01-23T18:52:29.518Z,1.73
2023-01-23T18:57:49.653Z,1.77
2023-01-23T19:02:55.332Z,1.81
2023-01-23T19:07:59.873Z,1.81
2023-01-23T19:13:14.376Z,1.82
2023-01-23T19:18:46.208Z,1.82
2023-01-23T19:23:59.277Z,1.80
2023-01-23T19:29:20.593Z,1.84
2023-01-23T19:34:24.370Z,1.81
2023-01-23T19:39:27.270Z,1.82
2023-01-23T19:44:31.504Z,1.86
2023-01-23T19:49:34.383Z,1.86
2023-01-23T19:54:37.171Z,1.85
2023-01-23T19:59:41.417Z,1.91
2023-01-23T20:04:44.225Z,1.89
2023-01-23T20:09:47.381Z,1.89
2023-01-23T20:14:51.677Z,1.86
2023-01-23T20:19:54.454Z,1.86
2023-01-23T20:24:57.434Z,1.87
2023-01-23T20:30:02.537Z,1.85
2023-01-23T20:35:06.120Z,1.81
2023-01-23T20:40:10.580Z,1.77
2023-01-23T20:45:14.770Z,1.74
2023-01-23T20:50:18.051Z,1.69
2023-01-23T20:55:21.076Z,1.63
2023-01-23T21:00:25.762Z,1.70
2023-01-23T21:05:28.968Z,1.67
2023-01-23T21:10:31.800Z,1.65
2023-01-23T21:15:35.956Z,1.66
2023-01-23T21:20:40.074Z,1.70
2023-01-23T21:25:42.950Z,1.71
2023-01-23T21:30:47.194Z,1.73
2023-01-23T21:35:50.586Z,1.74
2023-01-23T21:40:54.781Z,1.74
2023-01-23T21:45:59.094Z,1.75
2023-01-23T21:51:06.220Z,1.74
2023-01-23T21:56:10.180Z,1.73
2023-01-23T22:01:34.684Z,1.74
2023-01-23T22:06:39.520Z,1.72
2023-01-23T22:11:42.317Z,1.73
2023-01-23T22:16:49.828Z,1.72
2023-01-23T22:21:53.209Z,1.70
2023-01-23T22:26:55.957Z,1.70
2023-01-23T22:32:00.076Z,1.72
2023-01-23T22:37:03.016Z,1.70
2023-01-23T22:42:06.066Z,1.70
2023-01-23T22:47:10.893Z,1.70
2023-01-23T22:52:13.654Z,1.70
2023-01-23T22:57:16.447Z,1.67
2023-01-23T23:02:20.529Z,1.68
2023-01-23T23:07:23.234Z,1.69
2023-01-23T23:12:28.555Z,1.67
2023-01-23T23:17:32.864Z,1.64
2023-01-23T23:22:35.769Z,1.64
2023-01-23T23:27:39.068Z,1.62
2023-01-23T23:32:43.258Z,1.64
2023-01-23T23:37:45.987Z,1.61
2023-01-23T23:42:48.720Z,1.60
2023-01-23T23:47:52.891Z,1.64
2023-01-23T23:52:55.613Z,1.60
2023-01-23T23:57:59.790Z,1.61
